Time;durP1;ratioP1;P1;durP2;ratioP2;P2;SDS_P1;SDS_P2;PMS_P1;PMS_P2;Temp;Humidity;BMP_temperature;BMP_pressure;BME280_temperature;BME280_humidity;BME280_pressure;Samples;Min_cycle;Max_cycle;Signal;HPM_P1;HPM_P2
2023/01/24 05:43:53;;;;;;;26.80;15.20;;;;;;;1.25;65.99;102654.90;106342;1278;59601;-74
2023/01/24 05:46:24;;;;;;;26.10;14.50;;;;;;;1.24;65.99;102655.71;107507;1263;73177;-74
2023/01/24 05:49:00;;;;;;;26.60;15.10;;;;;;;1.24;66.03;102655.59;107556;1262;72816;-74
2023/01/24 05:51:28;;;;;;;29.00;14.80;;;;;;;1.26;66.10;102651.14;107476;1263;73904;-75
2023/01/24 05:53:55;;;;;;;29.20;15.30;;;;;;;1.27;65.93;102649.64;107532;1262;59518;-73
2023/01/24 05:57:02;;;;;;;28.80;16.00;;;;;;;1.25;65.95;102651.59;107089;1272;61083;-74
2023/01/24 05:59:36;;;;;;;29.80;15.60;;;;;;;1.21;65.82;102649.81;107111;1274;73480;-74
2023/01/24 06:02:04;;;;;;;28.40;15.80;;;;;;;1.17;65.90;102654.35;107251;1265;73924;-73
2023/01/24 06:04:31;;;;;;;26.80;15.90;;;;;;;1.15;65.93;102655.15;107468;1264;72340;-73
2023/01/24 06:06:58;;;;;;;28.90;16.30;;;;;;;1.15;65.82;102656.68;107498;1264;61385;-72
2023/01/24 06:09:26;;;;;;;30.60;16.20;;;;;;;1.20;66.01;102658.58;107447;1264;59729;-75
2023/01/24 06:11:53;;;;;;;29.70;16.00;;;;;;;1.24;66.01;102662.86;107421;1264;73286;-77
2023/01/24 06:14:20;;;;;;;29.00;16.40;;;;;;;1.26;66.14;102660.45;107437;1269;71721;-74
2023/01/24 06:16:48;;;;;;;28.80;15.90;;;;;;;1.19;65.77;102654.57;107715;1259;72948;-74
2023/01/24 06:19:15;;;;;;;28.00;17.40;;;;;;;1.12;65.89;102658.73;107698;1259;60596;-74
2023/01/24 06:21:44;;;;;;;30.30;17.00;;;;;;;1.08;66.05;102662.94;107762;1258;59569;-74
2023/01/24 06:24:17;;;;;;;29.70;17.20;;;;;;;1.04;65.95;102658.41;107815;1257;74138;-73
2023/01/24 06:26:53;;;;;;;27.70;15.50;;;;;;;1.01;65.85;102660.48;107831;1258;73366;-73
2023/01/24 06:29:21;;;;;;;31.60;17.50;;;;;;;0.97;65.99;102663.63;107815;1258;72368;-73
2023/01/24 06:32:13;;;;;;;29.90;16.50;;;;;;;0.97;66.15;102663.63;107747;1258;61833;-73
2023/01/24 06:35:08;;;;;;;31.50;17.80;;;;;;;0.99;66.13;102670.33;107860;1258;60984;-74
2023/01/24 06:37:48;;;;;;;30.10;16.50;;;;;;;1.03;66.38;102671.17;107843;1258;74203;-75
2023/01/24 06:40:20;;;;;;;28.10;17.20;;;;;;;1.08;66.37;102673.83;107848;1257;72497;-75
2023/01/24 06:42:47;;;;;;;27.80;16.40;;;;;;;1.10;66.19;102670.83;107869;1258;73346;-73
2023/01/24 06:45:15;;;;;;;28.00;15.90;;;;;;;1.12;66.22;102676.31;107799;1259;60266;-74
2023/01/24 06:47:42;;;;;;;36.10;19.10;;;;;;;1.11;66.17;102668.45;107801;1259;60144;-74
2023/01/24 06:50:13;;;;;;;26.20;15.60;;;;;;;1.08;66.10;102666.26;107754;1258;72021;-72
2023/01/24 06:52:40;;;;;;;29.60;16.50;;;;;;;1.06;66.00;102669.31;107779;1259;72800;-73
2023/01/24 06:55:07;;;;;;;31.00;17.30;;;;;;;1.03;66.21;102667.33;107747;1263;72610;-73
2023/01/24 06:57:34;;;;;;;33.10;18.40;;;;;;;1.01;66.18;102668.38;107740;1259;59996;-73
2023/01/24 07:00:06;;;;;;;32.60;17.20;;;;;;;1.04;66.24;102667.59;107789;1259;60302;-74
2023/01/24 07:02:34;;;;;;;32.30;18.80;;;;;;;1.10;66.31;102669.59;107775;1259;72039;-75
2023/01/24 07:05:01;;;;;;;26.40;15.70;;;;;;;1.15;66.28;102674.42;107793;1259;70954;-73
2023/01/24 07:07:28;;;;;;;30.40;16.60;;;;;;;1.15;65.87;102669.52;107783;1257;72899;-73
2023/01/24 07:09:55;;;;;;;26.60;15.10;;;;;;;1.20;66.14;102672.77;107836;1259;60003;-73
2023/01/24 07:12:22;;;;;;;29.70;16.20;;;;;;;1.23;65.79;102672.13;107839;1259;60123;-75
2023/01/24 07:14:50;;;;;;;30.10;17.50;;;;;;;1.26;65.73;102671.87;107837;1258;72322;-72
2023/01/24 07:17:17;;;;;;;29.10;16.60;;;;;;;1.31;65.91;102672.59;107816;1257;72119;-73
2023/01/24 07:19:46;;;;;;;30.80;18.00;;;;;;;1.40;65.61;102671.74;107793;1259;73951;-76
2023/01/24 07:22:13;;;;;;;30.40;17.00;;;;;;;1.46;65.78;102672.10;107847;1259;60388;-73
2023/01/24 07:24:41;;;;;;;32.60;18.00;;;;;;;1.52;65.61;102668.11;107833;1257;60508;-74
2023/01/24 07:27:09;;;;;;;29.70;17.10;;;;;;;1.58;65.43;102674.38;107864;1259;74076;-73
2023/01/24 07:29:35;;;;;;;30.30;17.40;;;;;;;1.63;65.37;102673.27;107858;1258;73721;-73
2023/01/24 07:32:03;;;;;;;31.30;16.90;;;;;;;1.64;65.18;102674.56;107832;1261;73781;-73
2023/01/24 07:34:30;;;;;;;28.70;16.70;;;;;;;1.64;65.17;102676.15;107808;1258;61164;-75
2023/01/24 07:36:57;;;;;;;27.10;15.10;;;;;;;1.64;65.01;102675.77;107822;1259;61270;-74
2023/01/24 07:39:27;;;;;;;29.00;16.90;;;;;;;1.63;64.71;102676.91;107814;1259;72998;-74
2023/01/24 07:41:56;;;;;;;28.00;16.20;;;;;;;1.59;64.69;102683.08;107870;1259;73329;-73
2023/01/24 07:44:23;;;;;;;27.50;16.40;;;;;;;1.52;64.78;102684.68;107728;1263;72392;-73
2023/01/24 07:46:50;;;;;;;26.50;15.90;;;;;;;1.70;64.50;102680.88;107740;1259;60251;-74
2023/01/24 07:49:17;;;;;;;30.00;16.10;;;;;;;1.73;64.11;102683.19;107813;1259;59924;-73
2023/01/24 07:51:45;;;;;;;30.30;16.00;;;;;;;1.74;64.09;102679.41;107739;1259;74469;-74
2023/01/24 07:54:12;;;;;;;29.80;17.00;;;;;;;1.64;64.37;102686.66;107822;1259;72819;-73
2023/01/24 07:56:39;;;;;;;27.10;15.10;;;;;;;1.58;64.43;102690.02;107807;1257;71838;-74
2023/01/24 07:59:06;;;;;;;27.30;15.90;;;;;;;1.49;64.10;102685.28;107814;1258;60609;-73
2023/01/24 08:01:33;;;;;;;25.90;15.60;;;;;;;1.43;64.28;102685.30;107817;1259;61648;-74
2023/01/24 08:04:00;;;;;;;28.80;17.30;;;;;;;1.41;64.42;102686.60;107804;1257;74310;-75
2023/01/24 08:06:27;;;;;;;27.90;15.30;;;;;;;1.38;64.21;102687.86;107815;1257;73044;-74
2023/01/24 08:08:54;;;;;;;26.90;14.30;;;;;;;1.34;64.40;102686.47;107857;1257;71922;-75
2023/01/24 08:11:21;;;;;;;26.50;15.80;;;;;;;1.33;64.51;102686.12;107844;1260;59648;-74
2023/01/24 08:13:50;;;;;;;28.30;16.20;;;;;;;1.34;64.18;102684.06;107836;1258;60298;-74
2023/01/24 08:16:17;;;;;;;26.30;15.90;;;;;;;1.37;64.42;102684.67;107825;1259;71879;-74
2023/01/24 08:18:44;;;;;;;31.00;16.40;;;;;;;1.43;64.43;102681.30;107880;1259;72083;-74
2023/01/24 08:21:12;;;;;;;27.00;17.10;;;;;;;1.47;64.40;102680.19;107853;1257;72677;-74
2023/01/24 08:23:41;;;;;;;30.60;17.00;;;;;;;1.50;64.40;102685.58;107815;1259;60735;-75
2023/01/24 08:26:08;;;;;;;27.10;15.80;;;;;;;1.51;64.43;102682.05;107735;1258;61202;-72
2023/01/24 08:28:35;;;;;;;28.20;15.70;;;;;;;1.55;64.45;102680.81;107845;1258;73686;-75
2023/01/24 08:31:02;;;;;;;27.60;16.00;;;;;;;1.59;64.43;102679.55;107821;1262;71177;-74
2023/01/24 08:33:30;;;;;;;30.10;16.90;;;;;;;1.63;64.14;102678.90;107862;1259;73597;-74
2023/01/24 08:36:00;;;;;;;31.90;17.00;;;;;;;1.64;64.03;102679.10;107863;1258;60139;-75
2023/01/24 08:38:26;;;;;;;31.00;17.00;;;;;;;1.64;63.98;102677.69;107824;1257;61625;-75
2023/01/24 08:40:53;;;;;;;29.60;17.70;;;;;;;1.62;63.83;102675.42;107819;1257;71999;-74
2023/01/24 08:43:20;;;;;;;33.40;17.70;;;;;;;1.62;63.90;102672.98;107821;1258;73727;-75
2023/01/24 08:45:52;;;;;;;33.60;17.90;;;;;;;1.58;63.72;102667.69;107837;1258;72777;-74
2023/01/24 08:48:19;;;;;;;30.70;16.40;;;;;;;1.55;64.07;102668.38;107686;1258;60603;-75
2023/01/24 08:50:46;;;;;;;31.10;17.40;;;;;;;1.60;63.98;102665.83;107749;1258;61451;-73
2023/01/24 08:53:14;;;;;;;31.90;17.30;;;;;;;1.69;64.16;102665.13;107786;1257;73418;-74
2023/01/24 08:55:41;;;;;;;27.50;15.90;;;;;;;1.79;64.09;102663.64;107781;1260;74005;-74
2023/01/24 08:58:08;;;;;;;32.60;18.10;;;;;;;1.82;63.74;102663.20;107741;1260;72858;-73
2023/01/24 09:00:35;;;;;;;33.50;18.50;;;;;;;1.78;63.74;102661.27;107770;1257;60354;-72
2023/01/24 09:03:02;;;;;;;29.10;16.50;;;;;;;1.77;63.55;102658.95;107814;1259;59592;-73
2023/01/24 09:05:29;;;;;;;31.60;18.60;;;;;;;1.77;63.57;102662.09;107994;1256;73888;-73
2023/01/24 09:07:57;;;;;;;31.20;17.50;;;;;;;1.76;63.60;102658.19;108121;1256;71996;-73
2023/01/24 09:10:23;;;;;;;27.10;16.70;;;;;;;1.79;63.69;102656.98;107915;1257;71723;-73
2023/01/24 09:12:50;;;;;;;27.20;16.30;;;;;;;1.88;63.62;102655.95;107998;1256;59597;-73
2023/01/24 09:15:17;;;;;;;31.20;17.20;;;;;;;1.99;63.46;102656.11;107999;1256;60469;-74
2023/01/24 09:17:45;;;;;;;32.70;18.40;;;;;;;2.05;63.51;102653.73;107998;1255;72665;-74
2023/01/24 09:20:12;;;;;;;31.50;18.50;;;;;;;2.16;63.25;102649.22;108002;1256;72982;-72
2023/01/24 09:22:39;;;;;;;31.70;18.90;;;;;;;2.25;63.18;102648.13;107996;1256;71524;-74
2023/01/24 09:25:07;;;;;;;30.30;18.00;;;;;;;2.31;62.97;102652.77;108050;1256;61119;-74
2023/01/24 09:27:40;;;;;;;35.20;21.50;;;;;;;2.34;62.76;102652.30;108057;1256;61835;-74
2023/01/24 09:30:07;;;;;;;;;;;;;;;2.36;62.67;102648.06;108100;1256;74902;-74
2023/01/24 09:32:36;;;;;;;33.60;18.80;;;;;;;2.36;62.49;102647.41;108031;1256;72017;-73
2023/01/24 09:35:03;;;;;;;31.50;17.70;;;;;;;2.32;62.28;102650.73;108070;1255;71704;-74
2023/01/24 09:37:30;;;;;;;28.80;16.20;;;;;;;2.30;62.26;102646.54;108003;1256;62274;-74
2023/01/24 09:39:59;;;;;;;31.80;18.00;;;;;;;2.26;62.19;102642.05;108124;1256;61303;-73
2023/01/24 09:42:41;;;;;;;34.30;19.40;;;;;;;2.23;62.41;102642.86;108110;1257;72833;-73
2023/01/24 09:45:08;;;;;;;32.80;19.40;;;;;;;2.25;62.30;102640.72;108106;1255;73242;-74
2023/01/24 09:47:45;;;;;;;33.80;19.20;;;;;;;2.30;62.46;102639.67;108114;1255;74111;-74
2023/01/24 14:01:14;;;;;;;34.30;21.50;;;;;;;1.30;74.14;102544.23;105789;1282;613983;-84
2023/01/24 14:03:43;;;;;;;34.60;21.20;;;;;;;2.12;70.62;102539.92;107375;1269;109198;-82
2023/01/24 14:06:12;;;;;;;30.90;19.30;;;;;;;2.16;69.98;102540.27;107423;1264;59832;-82
2023/01/24 14:08:47;;;;;;;30.70;18.90;;;;;;;2.17;69.52;102537.13;107454;1267;73758;-82
2023/01/24 14:11:19;;;;;;;34.20;19.60;;;;;;;2.20;68.93;102540.17;107531;1264;73726;-83
2023/01/24 14:13:46;;;;;;;33.80;19.80;;;;;;;2.22;68.68;102540.33;107513;1267;72863;-82
2023/01/24 14:16:39;;;;;;;34.50;21.40;;;;;;;2.24;68.11;102543.88;107511;1269;59276;-81
2023/01/24 14:19:21;;;;;;;35.60;22.00;;;;;;;2.24;67.74;102539.46;107443;1266;60547;-83
2023/01/24 14:22:13;;;;;;;34.50;22.20;;;;;;;2.20;67.29;102539.33;107517;1264;72079;-82
2023/01/24 14:25:01;;;;;;;33.90;20.20;;;;;;;2.11;66.84;102539.98;107488;1263;72215;-83
2023/01/24 14:27:49;;;;;;;32.90;19.80;;;;;;;2.04;66.56;102540.67;107539;1268;71807;-84
2023/01/24 14:30:42;;;;;;;30.80;19.20;;;;;;;1.98;66.66;102540.39;107539;1268;61107;-84
2023/01/24 14:33:24;;;;;;;31.50;19.00;;;;;;;1.97;66.44;102544.41;107443;1263;60601;-81
2023/01/24 14:36:01;;;;;;;36.80;19.80;;;;;;;1.95;66.65;102546.57;107584;1264;72741;-81
2023/01/24 14:38:28;;;;;;;31.90;19.40;;;;;;;1.92;66.51;102547.30;107574;1265;72374;-82
2023/01/24 14:40:55;;;;;;;32.60;19.20;;;;;;;1.91;66.42;102549.70;107533;1261;70578;-84
2023/01/24 14:43:24;;;;;;;34.00;20.60;;;;;;;1.92;66.44;102554.23;107554;1265;62048;-83
2023/01/24 14:45:51;;;;;;;37.00;20.20;;;;;;;1.91;66.13;102552.55;107571;1262;60903;-84
2023/01/24 14:48:23;;;;;;;32.30;19.80;;;;;;;1.87;66.14;102550.94;107609;1264;73252;-82
2023/01/24 14:50:58;;;;;;;35.90;19.00;;;;;;;1.85;66.03;102548.35;107464;1264;72411;-83
2023/01/24 14:53:27;;;;;;;35.40;21.10;;;;;;;1.84;65.88;102547.71;107514;1264;70869;-80
2023/01/24 14:55:56;;;;;;;35.50;21.00;;;;;;;1.84;65.82;102548.13;107491;1263;61390;-81
2023/01/24 14:58:27;;;;;;;33.00;20.10;;;;;;;1.87;65.94;102547.44;107436;1267;61552;-83
2023/01/24 15:00:58;;;;;;;33.70;21.40;;;;;;;1.93;66.01;102551.85;107417;1267;72435;-81
2023/01/24 15:03:31;;;;;;;36.20;20.70;;;;;;;1.93;65.69;102553.39;107423;1269;71916;-82
2023/01/24 15:06:02;;;;;;;37.10;22.40;;;;;;;1.93;65.70;102554.75;107736;1261;73662;-80
2023/01/24 15:08:29;;;;;;;34.90;20.60;;;;;;;1.93;65.67;102559.50;107710;1259;61250;-80
2023/01/24 15:11:30;;;;;;;37.10;21.90;;;;;;;1.96;65.58;102561.16;107630;1260;59528;-81
2023/01/24 15:14:00;;;;;;;33.00;20.80;;;;;;;1.97;65.66;102563.84;107655;1259;73303;-82
2023/01/24 15:16:46;;;;;;;38.30;22.40;;;;;;;1.97;65.63;102563.54;107744;1261;70904;-82
2023/01/24 15:19:21;;;;;;;37.60;21.60;;;;;;;1.99;65.64;102560.17;107766;1260;72224;-81
2023/01/24 15:21:49;;;;;;;40.00;22.50;;;;;;;2.00;65.44;102559.52;107676;1260;60620;-81
2023/01/24 15:24:20;;;;;;;39.20;22.40;;;;;;;2.00;65.44;102558.47;107820;1259;59579;-81
2023/01/24 15:26:47;;;;;;;39.90;22.20;;;;;;;2.00;65.40;102555.36;107851;1261;73292;-83
2023/01/24 15:29:39;;;;;;;40.30;22.30;;;;;;;1.99;65.45;102552.63;107824;1257;72257;-84
2023/01/24 15:32:29;;;;;;;39.80;23.20;;;;;;;1.99;65.40;102550.81;107772;1259;71905;-82
2023/01/24 15:35:22;;;;;;;42.00;24.30;;;;;;;2.02;65.38;102550.02;107591;1264;59550;-83
2023/01/24 15:38:14;;;;;;;38.10;22.80;;;;;;;2.06;65.37;102553.45;107775;1259;60474;-80
2023/01/24 15:41:12;;;;;;;39.50;23.80;;;;;;;2.08;65.30;102550.11;107757;1260;72718;-81
2023/01/24 15:43:54;;;;;;;38.80;21.90;;;;;;;2.09;65.21;102549.98;107840;1262;73859;-81
2023/01/24 15:49:24;;;;;;;42.10;22.60;;;;;;;2.17;65.29;102551.06;107864;1257;62058;-82
2023/01/24 15:52:05;;;;;;;38.90;23.30;;;;;;;2.23;65.19;102551.98;107918;1257;59579;-81
2023/01/24 15:54:32;;;;;;;43.20;24.10;;;;;;;2.24;64.88;102550.48;107891;1257;74085;-82
2023/01/24 15:57:02;;;;;;;40.10;22.60;;;;;;;2.24;64.84;102554.70;107879;1257;73843;-82
2023/01/24 15:59:29;;;;;;;37.00;21.80;;;;;;;2.23;64.81;102556.52;107839;1257;73274;-82
2023/01/24 16:01:56;;;;;;;36.80;22.30;;;;;;;2.20;64.79;102556.73;107696;1263;61823;-82
2023/01/24 16:04:23;;;;;;;36.50;20.90;;;;;;;2.17;64.71;102556.48;107852;1257;60593;-81
2023/01/24 16:06:50;;;;;;;34.10;21.60;;;;;;;2.18;64.70;102553.58;107863;1257;72269;-84
2023/01/24 16:09:18;;;;;;;36.10;22.00;;;;;;;2.18;64.59;102556.38;107841;1257;73075;-82
2023/01/24 16:11:47;;;;;;;34.00;21.40;;;;;;;2.16;64.59;102553.27;107899;1257;72719;-81
2023/01/24 16:14:20;;;;;;;36.30;21.60;;;;;;;2.13;64.63;102549.83;107873;1257;61234;-83
2023/01/24 16:16:47;;;;;;;41.00;22.20;;;;;;;2.09;64.61;102549.35;107906;1257;61434;-82
2023/01/24 16:19:16;;;;;;;33.30;20.40;;;;;;;2.00;64.80;102548.79;107742;1257;72467;-84
2023/01/24 16:21:43;;;;;;;33.90;20.90;;;;;;;2.04;64.72;102546.48;107887;1257;73832;-83
2023/01/24 16:24:10;;;;;;;40.90;22.70;;;;;;;2.10;64.63;102542.70;107873;1257;71339;-83
2023/01/24 16:26:39;;;;;;;41.90;24.20;;;;;;;2.12;64.59;102544.48;107719;1257;59616;-82
2023/01/24 16:29:13;;;;;;;40.30;23.40;;;;;;;2.12;64.60;102545.56;107877;1257;61512;-81
2023/01/24 16:31:41;;;;;;;39.10;24.40;;;;;;;2.11;64.53;102546.50;107838;1259;74203;-85
2023/01/24 16:34:10;;;;;;;40.80;24.00;;;;;;;2.09;64.48;102543.71;107833;1257;73323;-83
2023/01/24 16:36:37;;;;;;;35.60;22.10;;;;;;;2.08;64.57;102542.89;107872;1257;72049;-82
2023/01/24 16:39:04;;;;;;;35.90;22.20;;;;;;;2.05;64.49;102541.80;107851;1260;60309;-81
2023/01/24 16:41:33;;;;;;;35.60;21.80;;;;;;;1.98;64.41;102537.73;107901;1259;59515;-81
2023/01/24 16:44:00;;;;;;;37.10;22.50;;;;;;;1.95;64.54;102532.84;107834;1260;73256;-82
2023/01/24 16:46:27;;;;;;;34.00;21.40;;;;;;;1.94;64.47;102533.80;107791;1260;72854;-84
2023/01/24 16:48:54;;;;;;;32.50;20.40;;;;;;;1.96;64.62;102533.59;107759;1258;70614;-81
2023/01/24 16:51:21;;;;;;;37.90;22.40;;;;;;;1.97;64.66;102537.52;107838;1260;60817;-83
2023/01/24 16:53:48;;;;;;;33.60;19.50;;;;;;;1.94;64.58;102536.90;107860;1260;59531;-81
2023/01/24 16:56:15;;;;;;;34.90;20.50;;;;;;;1.94;64.64;102538.68;107639;1257;70874;-84
2023/01/24 16:58:42;;;;;;;36.10;20.50;;;;;;;1.95;64.53;102537.77;107882;1257;71358;-82
2023/01/24 17:01:09;;;;;;;40.10;21.50;;;;;;;1.93;64.58;102532.45;107886;1257;73670;-80
2023/01/24 17:03:36;;;;;;;37.70;21.50;;;;;;;1.91;64.51;102529.46;107837;1257;60127;-82
2023/01/24 17:06:09;;;;;;;39.00;21.60;;;;;;;1.91;64.38;102534.21;107884;1257;61207;-83
2023/01/24 17:08:37;;;;;;;33.80;19.50;;;;;;;1.92;64.49;102538.23;107876;1257;72785;-82
2023/01/24 17:11:09;;;;;;;37.70;21.60;;;;;;;1.92;64.58;102536.42;107828;1257;72635;-82
2023/01/24 17:13:36;;;;;;;32.90;21.20;;;;;;;1.95;64.52;102535.48;107830;1257;71863;-82
2023/01/24 17:16:05;;;;;;;35.10;21.20;;;;;;;1.94;64.33;102529.17;107877;1257;59621;-81
2023/01/24 17:18:32;;;;;;;37.00;20.70;;;;;;;1.92;64.30;102527.85;107849;1257;59929;-82
2023/01/24 17:21:03;;;;;;;38.30;22.00;;;;;;;1.91;64.22;102527.42;107703;1258;73317;-82
2023/01/24 17:23:31;;;;;;;38.40;21.20;;;;;;;1.94;64.27;102525.90;107876;1257;73422;-82
2023/01/24 17:26:00;;;;;;;39.20;22.80;;;;;;;1.94;64.29;102522.85;107780;1258;71287;-82
2023/01/24 17:28:27;;;;;;;34.80;21.10;;;;;;;1.92;64.17;102523.94;107857;1257;60436;-82
2023/01/24 17:30:54;;;;;;;37.30;21.90;;;;;;;1.92;64.01;102526.94;107730;1261;60587;-82
2023/01/24 17:33:21;;;;;;;35.20;20.30;;;;;;;1.92;64.05;102527.52;107721;1258;72863;-81
2023/01/24 17:35:50;;;;;;;34.80;20.60;;;;;;;1.92;64.21;102526.25;107714;1259;73258;-84
2023/01/24 17:38:17;;;;;;;46.90;25.30;;;;;;;1.90;64.03;102528.54;107753;1258;71477;-82
2023/01/24 17:40:44;;;;;;;50.80;27.80;;;;;;;1.84;64.01;102526.13;107718;1258;59608;-82
2023/01/24 17:43:11;;;;;;;46.30;27.10;;;;;;;1.80;63.96;102526.42;107750;1260;59527;-83
2023/01/24 17:45:38;;;;;;;45.90;24.90;;;;;;;1.79;63.96;102533.34;107741;1259;73306;-83
2023/01/24 17:48:05;;;;;;;41.00;23.40;;;;;;;1.80;64.07;102535.66;107735;1259;71845;-83
2023/01/24 17:50:32;;;;;;;34.30;21.00;;;;;;;1.81;64.07;102536.13;107542;1259;72251;-83
2023/01/24 17:52:59;;;;;;;36.20;21.50;;;;;;;1.79;63.92;102526.83;107712;1259;61612;-82
2023/01/24 21:47:05;;;;;;;35.40;23.10;;;;;;;0.82;76.30;102507.05;105811;1282;613205;-80
2023/01/24 21:49:34;;;;;;;40.10;23.90;;;;;;;1.66;72.61;102506.30;107325;1269;107709;-80
2023/01/24 21:52:05;;;;;;;39.40;22.90;;;;;;;1.69;71.78;102498.86;107454;1267;59831;-80
2023/01/24 21:54:36;;;;;;;37.60;22.30;;;;;;;1.68;71.19;102497.20;108179;1254;73409;-81
2023/01/24 22:00:07;;;;;;;36.50;20.60;;;;;;;1.29;70.69;102498.18;108170;1254;73027;-78
2023/01/24 22:02:42;;;;;;;36.00;21.20;;;;;;;1.21;70.83;102497.67;108163;1254;60252;-80
2023/01/24 22:05:10;;;;;;;34.80;20.80;;;;;;;1.25;70.72;102486.66;108211;1257;59760;-81
2023/01/24 22:07:40;;;;;;;35.50;21.10;;;;;;;1.31;70.64;102483.08;108211;1254;72233;-80
2023/01/24 22:10:11;;;;;;;34.50;20.90;;;;;;;1.34;70.21;102479.95;108260;1257;73924;-80
2023/01/24 22:12:39;;;;;;;36.10;21.50;;;;;;;1.33;70.07;102479.65;108250;1254;71551;-80
2023/01/24 22:15:10;;;;;;;38.10;21.30;;;;;;;1.35;69.79;102475.23;108186;1254;60858;-80
2023/01/24 22:17:39;;;;;;;;;;;;;;;1.39;69.67;102474.84;108178;1254;60615;-80
2023/01/24 22:20:11;;;;;;;33.80;19.90;;;;;;;1.42;69.46;102479.52;108205;1254;74210;-80
2023/01/24 22:22:52;;;;;;;34.40;19.50;;;;;;;1.42;68.97;102477.60;108181;1254;72492;-81
2023/01/24 22:25:30;;;;;;;32.70;19.80;;;;;;;1.38;68.96;102479.31;108095;1254;73793;-82
2023/01/24 22:27:59;;;;;;;37.00;21.00;;;;;;;1.36;68.73;102479.91;108139;1254;60494;-81
2023/01/24 22:30:28;;;;;;;34.90;20.70;;;;;;;1.34;68.30;102479.95;108193;1254;61273;-83
2023/01/24 22:32:59;;;;;;;37.60;21.90;;;;;;;1.30;68.35;102479.95;108248;1254;73251;-80
2023/01/24 22:35:28;;;;;;;37.90;22.30;;;;;;;1.30;68.30;102477.90;108230;1254;73615;-80
2023/01/24 22:37:57;;;;;;;34.60;21.40;;;;;;;1.31;68.38;102477.81;108196;1254;70957;-82
2023/01/24 22:40:26;;;;;;;37.60;22.70;;;;;;;1.34;68.31;102476.63;108186;1254;59695;-81
2023/01/24 22:42:56;;;;;;;40.30;23.00;;;;;;;1.38;68.20;102471.63;108179;1257;59495;-81
2023/01/24 22:45:25;;;;;;;38.30;22.50;;;;;;;1.46;68.38;102472.44;108019;1257;74006;-81
2023/01/24 22:47:54;;;;;;;41.80;23.10;;;;;;;1.50;68.08;102473.27;108046;1257;71419;-81
2023/01/24 22:50:22;;;;;;;38.90;23.00;;;;;;;1.53;68.20;102467.56;108066;1257;71005;-81
2023/01/24 22:52:51;;;;;;;42.60;24.80;;;;;;;1.54;68.08;102463.59;107985;1256;60664;-82
2023/01/24 22:55:19;;;;;;;36.20;22.60;;;;;;;1.59;67.97;102461.54;107934;1257;59523;-80
2023/01/24 22:57:47;;;;;;;37.90;22.90;;;;;;;1.63;67.80;102459.01;108056;1257;72943;-81
2023/01/24 23:00:16;;;;;;;44.80;24.10;;;;;;;1.68;67.65;102458.94;108000;1257;72664;-80
2023/01/24 23:02:44;;;;;;;37.20;22.10;;;;;;;1.70;67.75;102459.61;107997;1257;72904;-80
2023/01/24 23:05:12;;;;;;;36.70;22.00;;;;;;;1.75;67.54;102455.61;108020;1258;59620;-81
2023/01/24 23:07:41;;;;;;;33.80;21.70;;;;;;;1.77;67.36;102450.98;107983;1256;60869;-81
2023/01/24 23:10:09;;;;;;;39.10;24.10;;;;;;;1.78;67.28;102445.48;107972;1256;74260;-80
2023/01/24 23:18:14;;;;;;;39.60;24.40;;;;;;;1.70;66.97;102451.52;108044;1256;61893;-81
2023/01/24 23:23:30;;;;;;;33.70;20.70;;;;;;;1.78;66.71;102451.69;107968;1258;72057;-81
2023/01/24 23:25:59;;;;;;;39.70;23.60;;;;;;;1.80;66.58;102447.72;107984;1256;72357;-80
2023/01/24 23:28:28;;;;;;;43.70;24.70;;;;;;;1.80;66.39;102443.10;107969;1256;73920;-80
2023/01/24 23:31:04;;;;;;;39.90;22.50;;;;;;;1.77;66.05;102438.34;108003;1257;60015;-81
2023/01/24 23:33:39;;;;;;;37.10;22.20;;;;;;;1.66;66.00;102431.31;108113;1257;61238;-80
2023/01/24 23:36:08;;;;;;;43.10;24.80;;;;;;;1.58;65.94;102427.36;108193;1255;71494;-81
2023/01/24 23:38:36;;;;;;;40.70;23.80;;;;;;;1.57;66.09;102423.30;108231;1256;72842;-82
2023/01/24 23:41:05;;;;;;;37.40;22.50;;;;;;;1.58;66.06;102420.91;108247;1256;72258;-81
2023/01/24 23:43:34;;;;;;;38.40;22.80;;;;;;;1.57;66.04;102422.90;108204;1256;59550;-81
2023/01/24 23:46:07;;;;;;;38.20;23.30;;;;;;;1.56;65.91;102420.06;108218;1256;59494;-81
2023/01/24 23:48:36;;;;;;;38.30;22.20;;;;;;;1.55;65.91;102418.50;108165;1254;71446;-81
2023/01/24 23:51:07;;;;;;;39.10;23.00;;;;;;;1.58;65.77;102413.52;108129;1257;71333;-82
2023/01/24 23:53:36;;;;;;;40.10;23.40;;;;;;;1.60;65.99;102412.05;108201;1255;71646;-80
2023/01/24 23:56:05;;;;;;;40.60;23.40;;;;;;;1.63;65.74;102411.42;108128;1257;59608;-81
2023/01/24 23:58:33;;;;;;;40.30;23.20;;;;;;;1.65;65.82;102409.48;108217;1257;60528;-82
